createdAt,value
2023-01-18T00:01:15.703Z,10.93
2023-01-18T00:03:43.812Z,9.40
2023-01-18T00:06:13.529Z,8.57
2023-01-18T00:08:42.289Z,14.90
2023-01-18T00:11:12.633Z,9.93
2023-01-18T00:13:41.022Z,9.17
2023-01-18T00:16:12.537Z,9.67
2023-01-18T00:18:40.881Z,10.40
2023-01-18T00:21:10.430Z,9.67
2023-01-18T00:23:40.156Z,9.63
2023-01-18T00:26:10.137Z,13.20
2023-01-18T00:28:40.607Z,11.93
2023-01-18T00:31:13.286Z,12.80
2023-01-18T00:33:43.889Z,15.20
2023-01-18T00:36:12.917Z,13.17
2023-01-18T00:38:42.637Z,11.70
2023-01-18T00:41:10.765Z,10.37
2023-01-18T00:43:40.564Z,11.30
2023-01-18T00:46:09.987Z,12.90
2023-01-18T00:48:39.796Z,10.63
2023-01-18T00:51:09.319Z,12.47
2023-01-18T00:53:38.032Z,14.23
2023-01-18T00:56:08.706Z,11.40
2023-01-18T00:58:37.508Z,12.00
2023-01-18T01:01:06.459Z,11.17
2023-01-18T01:03:54.819Z,15.97
2023-01-18T01:06:44.411Z,11.70
2023-01-18T01:09:13.211Z,13.07
2023-01-18T01:12:04.192Z,13.50
2023-01-18T01:14:50.720Z,12.43
2023-01-18T01:17:36.192Z,11.73
2023-01-18T01:20:22.849Z,13.83
2023-01-18T01:23:08.527Z,13.63
2023-01-18T01:25:54.688Z,13.80
2023-01-18T01:28:24.181Z,17.13
2023-01-18T01:30:52.381Z,14.90
2023-01-18T01:33:20.433Z,17.10
2023-01-18T01:35:48.509Z,16.37
2023-01-18T01:38:16.519Z,16.47
2023-01-18T01:40:44.530Z,15.73
2023-01-18T01:43:14.334Z,17.53
2023-01-18T01:45:43.836Z,13.77
2023-01-18T01:48:12.415Z,17.20
2023-01-18T01:50:41.533Z,19.03
2023-01-18T01:53:11.884Z,16.10
2023-01-18T01:55:41.166Z,17.70
2023-01-18T01:58:14.174Z,14.53
2023-01-18T02:00:44.364Z,18.57
2023-01-18T02:03:15.633Z,16.20
2023-01-18T02:05:46.047Z,15.13
2023-01-18T02:08:22.322Z,16.73
2023-01-18T02:10:50.586Z,15.10
2023-01-18T02:13:20.491Z,15.00
2023-01-18T02:15:56.729Z,14.60
2023-01-18T02:18:30.089Z,18.70
2023-01-18T02:21:17.749Z,16.20
2023-01-18T02:24:31.835Z,15.53
2023-01-18T02:27:07.222Z,17.57
2023-01-18T02:30:12.706Z,17.47
2023-01-18T02:32:56.017Z,14.47
2023-01-18T02:35:34.703Z,15.43
2023-01-18T02:38:10.854Z,15.37
2023-01-18T02:40:47.625Z,16.83
2023-01-18T02:43:37.483Z,15.13
2023-01-18T02:46:33.709Z,14.10
2023-01-18T02:49:08.827Z,14.47
2023-01-18T02:51:37.430Z,18.20
2023-01-18T02:54:09.474Z,15.37
2023-01-18T02:56:41.266Z,15.30
2023-01-18T02:59:14.425Z,14.43
2023-01-18T03:01:47.836Z,16.23
2023-01-18T03:04:21.628Z,15.03
2023-01-18T03:06:57.293Z,15.87
2023-01-18T03:09:27.061Z,14.80
2023-01-18T03:12:02.130Z,14.00
2023-01-18T03:14:40.218Z,18.80
2023-01-18T03:17:20.292Z,17.40
2023-01-18T03:20:08.624Z,16.50
2023-01-18T03:22:57.185Z,15.67
2023-01-18T03:25:31.581Z,13.40
2023-01-18T03:28:20.823Z,14.97
2023-01-18T03:31:07.651Z,14.23
2023-01-18T03:33:47.187Z,17.00
2023-01-18T03:36:22.540Z,17.17
2023-01-18T03:38:55.739Z,16.93
2023-01-18T03:41:27.768Z,14.83
2023-01-18T03:43:59.069Z,15.73
2023-01-18T03:46:31.469Z,15.23
2023-01-18T03:49:01.658Z,14.47
2023-01-18T03:51:41.808Z,18.30
2023-01-18T03:54:15.803Z,17.67
2023-01-18T03:56:49.709Z,18.57
2023-01-18T03:59:17.999Z,19.83
2023-01-18T04:01:48.165Z,15.97
2023-01-18T04:04:17.595Z,17.60
2023-01-18T04:06:45.610Z,19.07
2023-01-18T04:09:13.822Z,17.63
2023-01-18T04:11:41.832Z,19.83
2023-01-18T04:14:10.073Z,22.17
2023-01-18T04:16:38.090Z,17.43
2023-01-18T04:19:07.384Z,18.37
2023-01-18T04:21:38.446Z,17.37
2023-01-18T04:24:07.070Z,21.07
2023-01-18T04:26:35.178Z,19.57
2023-01-18T04:29:03.408Z,18.17
2023-01-18T04:31:31.966Z,19.17
2023-01-18T04:34:00.053Z,18.87
2023-01-18T04:36:29.318Z,18.23
2023-01-18T04:38:59.317Z,17.70
2023-01-18T04:41:27.554Z,18.03
2023-01-18T04:43:55.567Z,17.77
2023-01-18T04:46:23.757Z,17.63
2023-01-18T04:48:52.556Z,20.77
2023-01-18T04:51:21.335Z,19.10
2023-01-18T04:53:49.579Z,18.70
2023-01-18T04:56:20.832Z,15.83
2023-01-18T04:58:48.896Z,20.70
2023-01-18T05:01:17.039Z,19.57
2023-01-18T05:03:45.438Z,19.60
2023-01-18T05:06:15.345Z,20.80
2023-01-18T05:08:44.217Z,18.60
2023-01-18T05:11:14.121Z,16.20
2023-01-18T05:13:44.326Z,17.40
2023-01-18T05:16:17.616Z,17.23
2023-01-18T05:18:45.987Z,17.30
2023-01-18T05:21:15.240Z,18.20
2023-01-18T05:23:43.648Z,19.07
2023-01-18T05:26:16.514Z,21.60
2023-01-18T05:28:45.993Z,19.23
2023-01-18T05:31:14.869Z,18.50
2023-01-18T05:33:43.108Z,19.10
2023-01-18T05:36:11.647Z,19.13
2023-01-18T05:38:39.701Z,17.33
2023-01-18T05:41:07.796Z,20.53
2023-01-18T05:43:36.117Z,17.93
2023-01-18T05:46:06.049Z,19.93
2023-01-18T05:48:34.222Z,19.10
2023-01-18T05:51:07.717Z,21.37
2023-01-18T05:53:35.943Z,17.50
2023-01-18T05:56:06.187Z,19.87
2023-01-18T05:58:34.249Z,20.73
2023-01-18T06:01:02.356Z,20.00
2023-01-18T06:03:31.805Z,21.77
2023-01-18T06:05:59.827Z,18.57
2023-01-18T06:08:29.170Z,33.80
2023-01-18T06:10:58.436Z,20.67
2023-01-18T06:13:28.914Z,21.27
2023-01-18T06:15:57.049Z,22.03
2023-01-18T06:18:26.878Z,24.00
2023-01-18T06:20:58.137Z,22.83
2023-01-18T06:23:31.555Z,24.60
2023-01-18T06:25:59.569Z,21.93
2023-01-18T06:28:30.260Z,21.17
2023-01-18T06:30:59.216Z,21.20
2023-01-18T06:33:27.517Z,21.60
2023-01-18T06:35:56.963Z,24.87
2023-01-18T06:38:24.987Z,20.87
2023-01-18T06:40:53.018Z,21.73
2023-01-18T06:43:21.748Z,22.13
2023-01-18T06:45:54.079Z,23.97
2023-01-18T06:48:23.936Z,21.20
2023-01-18T06:50:52.749Z,21.73
2023-01-18T06:53:22.585Z,19.77
2023-01-18T06:55:55.125Z,20.43
2023-01-18T06:58:23.141Z,20.03
2023-01-18T07:00:51.794Z,22.23
2023-01-18T07:03:19.836Z,22.77
2023-01-18T07:05:48.107Z,20.03
2023-01-18T07:08:16.168Z,25.30
2023-01-18T07:10:45.533Z,23.10
2023-01-18T07:13:13.552Z,22.53
2023-01-18T07:15:41.622Z,22.83
2023-01-18T07:18:09.615Z,20.80
2023-01-18T07:20:40.125Z,20.33
2023-01-18T07:23:08.106Z,23.57
2023-01-18T07:25:36.206Z,24.30
2023-01-18T07:28:05.955Z,23.57
2023-01-18T07:30:33.980Z,24.50
2023-01-18T07:33:01.980Z,20.43
2023-01-18T07:35:30.141Z,24.87
2023-01-18T07:37:58.414Z,21.97
2023-01-18T07:40:26.450Z,21.93
2023-01-18T07:42:58.685Z,24.03
2023-01-18T07:45:28.226Z,25.17
2023-01-18T07:47:56.377Z,23.83
2023-01-18T07:50:24.399Z,26.23
2023-01-18T07:52:52.424Z,24.57
2023-01-18T07:55:21.552Z,27.47
2023-01-18T07:57:49.714Z,30.67
2023-01-18T08:00:18.395Z,31.57
2023-01-18T08:02:51.519Z,29.00
2023-01-18T08:05:23.765Z,31.43
2023-01-18T08:07:53.572Z,26.87
2023-01-18T08:10:22.260Z,26.37
2023-01-18T08:12:51.141Z,21.17
2023-01-18T08:15:19.169Z,24.70
2023-01-18T08:17:51.102Z,25.23
2023-01-18T08:20:20.796Z,24.00
2023-01-18T08:22:48.886Z,23.97
2023-01-18T08:25:17.640Z,26.33
2023-01-18T08:27:45.632Z,22.80
2023-01-18T08:30:14.338Z,23.97
2023-01-18T08:32:42.358Z,24.60
2023-01-18T08:35:11.797Z,22.83
2023-01-18T08:37:39.831Z,24.33
2023-01-18T08:40:08.847Z,26.37
2023-01-18T08:42:36.865Z,23.67
2023-01-18T08:45:05.419Z,23.73
2023-01-18T08:47:33.873Z,28.87
2023-01-18T08:50:01.890Z,25.43
2023-01-18T08:52:31.251Z,23.33
2023-01-18T08:54:59.251Z,28.77
2023-01-18T08:57:28.697Z,29.17
2023-01-18T08:59:57.058Z,26.13
2023-01-18T09:02:28.419Z,23.73
2023-01-18T09:04:56.559Z,24.20
2023-01-18T09:07:24.603Z,22.50
2023-01-18T09:09:54.003Z,24.07
2023-01-18T09:12:22.045Z,23.23
2023-01-18T09:14:50.067Z,29.63
2023-01-18T09:17:19.355Z,25.27
2023-01-18T09:19:47.410Z,23.80
2023-01-18T09:22:15.546Z,25.47
2023-01-18T09:24:44.200Z,20.00
2023-01-18T09:27:13.908Z,23.60
2023-01-18T09:29:41.945Z,23.53
2023-01-18T09:32:10.613Z,25.47
2023-01-18T09:34:38.629Z,24.63
2023-01-18T09:37:06.695Z,22.23
2023-01-18T09:39:50.470Z,24.23
2023-01-18T09:42:23.003Z,24.73
2023-01-18T09:44:53.690Z,24.63
2023-01-18T09:47:24.502Z,22.10
2023-01-18T09:49:56.672Z,22.47
2023-01-18T09:52:43.648Z,24.27
2023-01-18T09:55:19.686Z,21.17
2023-01-18T09:58:05.659Z,22.53
2023-01-18T10:00:38.021Z,21.13
2023-01-18T10:03:13.169Z,23.30
2023-01-18T10:05:48.383Z,21.40
2023-01-18T10:08:21.937Z,23.17
2023-01-18T10:10:57.079Z,21.70
2023-01-18T10:13:39.365Z,24.60
2023-01-18T10:16:14.923Z,22.47
2023-01-18T10:18:46.609Z,20.17
2023-01-18T10:21:26.353Z,19.63
2023-01-18T10:24:12.468Z,17.10
2023-01-18T10:26:41.192Z,21.17
2023-01-18T10:29:17.104Z,22.33
2023-01-18T10:31:56.495Z,20.43
2023-01-18T10:34:32.789Z,21.87
2023-01-18T10:37:12.454Z,21.27
2023-01-18T10:39:43.775Z,20.43
2023-01-18T10:42:20.787Z,19.87
2023-01-18T10:44:50.352Z,19.90
2023-01-18T10:47:18.987Z,19.47
2023-01-18T10:49:50.337Z,23.30
2023-01-18T10:52:27.160Z,19.13
2023-01-18T10:54:58.047Z,19.13
2023-01-18T10:57:30.803Z,17.03
2023-01-18T11:00:00.707Z,18.70
2023-01-18T11:02:31.405Z,18.60
2023-01-18T11:05:03.639Z,17.33
2023-01-18T11:07:32.212Z,20.63
2023-01-18T11:10:06.436Z,19.90
2023-01-18T11:12:41.069Z,18.67
2023-01-18T11:15:32.064Z,17.10
2023-01-18T11:18:02.495Z,19.57
2023-01-18T11:20:36.595Z,17.43
2023-01-18T11:23:07.463Z,19.43
2023-01-18T11:25:40.127Z,17.50
2023-01-18T11:28:18.240Z,17.63
2023-01-18T11:30:53.645Z,16.83
2023-01-18T11:33:23.036Z,17.30
2023-01-18T11:35:56.280Z,15.83
2023-01-18T11:38:29.255Z,17.77
2023-01-18T11:41:07.260Z,14.37
2023-01-18T11:43:39.352Z,16.87
2023-01-18T11:46:25.736Z,17.67
2023-01-18T11:48:58.880Z,17.60
2023-01-18T11:51:34.557Z,16.60
2023-01-18T11:54:11.259Z,16.43
2023-01-18T11:56:43.376Z,16.67
2023-01-18T11:59:15.678Z,17.37
2023-01-18T12:02:00.324Z,17.20
2023-01-18T12:04:44.518Z,18.33
2023-01-18T12:07:35.599Z,16.13
2023-01-18T12:10:08.595Z,17.70
2023-01-18T12:12:53.460Z,17.77
2023-01-18T12:15:38.771Z,17.87
2023-01-18T12:18:22.842Z,17.10
2023-01-18T12:21:00.645Z,16.83
2023-01-18T12:24:13.667Z,20.33
2023-01-18T12:26:50.908Z,17.43
2023-01-18T12:29:56.546Z,17.60
2023-01-18T12:32:44.933Z,18.33
2023-01-18T12:35:28.780Z,21.67
2023-01-18T12:38:08.154Z,19.30
2023-01-18T12:40:50.866Z,18.37
2023-01-18T12:43:32.535Z,19.60
2023-01-18T12:46:07.183Z,19.73
2023-01-18T12:48:43.767Z,17.93
2023-01-18T12:51:17.160Z,17.43
2023-01-18T12:53:50.033Z,19.83
2023-01-18T12:56:21.456Z,24.80
2023-01-18T12:58:55.484Z,23.33
2023-01-18T13:01:27.251Z,18.20
2023-01-18T13:04:02.907Z,20.40
2023-01-18T13:06:35.091Z,17.63
2023-01-18T13:09:07.996Z,20.90
2023-01-18T13:11:38.500Z,15.10
2023-01-18T13:14:15.458Z,15.47
2023-01-18T13:16:51.368Z,16.33
2023-01-18T13:19:24.930Z,13.87
2023-01-18T13:22:04.638Z,17.17
2023-01-18T13:24:47.367Z,17.20
2023-01-18T13:27:17.577Z,14.60
2023-01-18T13:29:46.882Z,16.20
2023-01-18T13:32:24.013Z,13.77
2023-01-18T13:35:17.870Z,15.80
2023-01-18T13:37:50.871Z,14.50
2023-01-18T13:40:38.635Z,14.00
2023-01-18T13:43:27.647Z,13.13
2023-01-18T13:46:04.385Z,14.40
2023-01-18T13:48:45.438Z,11.93
2023-01-18T13:51:52.024Z,12.63
2023-01-18T13:55:01.217Z,12.73
2023-01-18T13:57:31.070Z,14.85
2023-01-18T13:59:59.981Z,15.00
2023-01-18T14:02:34.046Z,12.23
2023-01-18T14:05:09.532Z,14.67
2023-01-18T14:07:43.088Z,12.73
2023-01-18T14:10:26.779Z,14.70
2023-01-18T14:12:57.576Z,14.83
2023-01-18T14:15:30.328Z,15.17
2023-01-18T14:17:59.501Z,17.87
2023-01-18T14:20:49.050Z,28.40
2023-01-18T14:23:29.594Z,13.67
2023-01-18T14:26:03.074Z,14.57
2023-01-18T14:28:36.575Z,15.17
2023-01-18T14:31:05.776Z,14.53
2023-01-18T14:33:36.448Z,14.33
2023-01-18T14:36:08.353Z,18.13
2023-01-18T14:38:36.541Z,11.70
2023-01-18T14:41:08.867Z,14.30
2023-01-18T14:43:44.264Z,17.03
2023-01-18T14:46:15.972Z,15.17
2023-01-18T14:48:51.432Z,14.73
2023-01-18T14:51:22.204Z,16.63
2023-01-18T14:53:54.216Z,21.20
2023-01-18T14:56:26.910Z,19.13
2023-01-18T14:58:57.707Z,15.97
2023-01-18T15:01:29.782Z,15.73
2023-01-18T15:04:00.384Z,15.80
2023-01-18T15:06:40.254Z,14.47
2023-01-18T15:09:10.083Z,16.97
2023-01-18T15:11:41.166Z,14.67
2023-01-18T15:14:15.381Z,14.80
2023-01-18T15:16:43.687Z,13.67
2023-01-18T15:19:16.714Z,13.47
2023-01-18T15:21:45.955Z,15.87
2023-01-18T15:24:18.067Z,17.90
2023-01-18T15:26:48.732Z,14.20
2023-01-18T15:29:18.431Z,16.17
2023-01-18T15:31:52.822Z,14.60
2023-01-18T15:34:28.379Z,18.03
2023-01-18T15:36:58.159Z,14.83
2023-01-18T15:39:26.921Z,14.00
2023-01-18T15:41:57.940Z,17.37
2023-01-18T15:44:43.136Z,15.97
2023-01-18T15:47:22.776Z,13.27
2023-01-18T15:49:52.706Z,18.30
2023-01-18T15:52:37.282Z,13.43
2023-01-18T15:55:07.227Z,16.03
2023-01-18T15:57:37.571Z,15.27
2023-01-18T16:00:06.861Z,18.03
2023-01-18T16:02:35.160Z,17.10
2023-01-18T16:05:20.542Z,16.97
2023-01-18T16:07:51.534Z,15.50
2023-01-18T16:10:30.384Z,20.47
2023-01-18T16:13:24.033Z,15.13
2023-01-18T16:16:14.192Z,15.70
2023-01-18T16:18:44.462Z,14.67
2023-01-18T16:21:16.260Z,14.30
2023-01-18T16:23:47.395Z,14.97
2023-01-18T16:26:15.735Z,17.57
2023-01-18T16:28:45.174Z,15.07
2023-01-18T16:31:13.491Z,13.87
2023-01-18T16:33:41.642Z,18.97
2023-01-18T16:36:18.891Z,21.90
2023-01-18T16:38:47.090Z,25.90
2023-01-18T16:41:16.934Z,20.27
2023-01-18T16:43:48.079Z,21.10
2023-01-18T16:46:16.284Z,20.23
2023-01-18T16:48:44.310Z,16.30
2023-01-18T16:51:16.072Z,18.87
2023-01-18T16:53:44.184Z,19.13
2023-01-18T16:56:15.679Z,17.57
2023-01-18T16:58:43.740Z,19.17
2023-01-18T17:01:15.796Z,15.80
2023-01-18T17:03:44.622Z,18.00
2023-01-18T17:06:18.058Z,18.70
2023-01-18T17:08:47.543Z,14.97
2023-01-18T17:11:15.767Z,14.93
2023-01-18T17:13:44.833Z,17.80
2023-01-18T17:16:18.601Z,16.30
2023-01-18T17:18:47.927Z,17.27
2023-01-18T17:21:16.479Z,18.13
2023-01-18T17:23:45.273Z,22.53
2023-01-18T17:26:15.924Z,16.93
2023-01-18T17:28:44.605Z,15.87
2023-01-18T17:31:12.816Z,17.33
2023-01-18T17:33:43.697Z,18.80
2023-01-18T17:36:11.755Z,20.37
2023-01-18T17:38:39.771Z,18.53
2023-01-18T17:41:11.328Z,18.13
2023-01-18T17:43:41.450Z,18.33
2023-01-18T17:46:10.097Z,16.87
2023-01-18T17:48:38.686Z,16.30
2023-01-18T17:51:09.301Z,15.67
2023-01-18T17:53:37.708Z,19.43
2023-01-18T17:56:08.290Z,20.77
2023-01-18T17:58:36.501Z,19.67
2023-01-18T18:01:10.215Z,18.13
2023-01-18T18:03:38.826Z,17.73
2023-01-18T18:06:09.241Z,21.03
2023-01-18T18:08:39.308Z,18.53
2023-01-18T18:11:09.192Z,18.63
2023-01-18T18:13:37.944Z,17.10
2023-01-18T18:16:07.466Z,21.37
2023-01-18T18:18:36.643Z,20.70
2023-01-18T18:21:06.247Z,19.20
2023-01-18T18:23:36.209Z,20.93
2023-01-18T18:26:05.533Z,20.37
2023-01-18T18:28:34.339Z,18.93
2023-01-18T18:31:02.771Z,18.53
2023-01-18T18:33:32.919Z,17.03
2023-01-18T18:36:01.869Z,19.13
2023-01-18T18:38:29.931Z,19.73
2023-01-18T18:41:03.781Z,21.47
2023-01-18T18:43:31.785Z,18.30
2023-01-18T18:45:59.874Z,19.50
2023-01-18T18:48:27.938Z,20.60
2023-01-18T18:50:56.207Z,22.67
2023-01-18T18:53:37.006Z,19.50
2023-01-18T18:56:09.569Z,21.53
2023-01-18T18:58:38.141Z,17.70
2023-01-18T19:01:07.164Z,17.83
2023-01-18T19:03:35.992Z,19.97
2023-01-18T19:06:04.058Z,19.60
2023-01-18T19:08:32.059Z,18.67
2023-01-18T19:11:00.138Z,20.57
2023-01-18T19:13:29.552Z,22.80
2023-01-18T19:15:57.869Z,21.07
2023-01-18T19:18:25.911Z,18.93
2023-01-18T19:20:54.007Z,19.23
2023-01-18T19:23:22.063Z,22.63
2023-01-18T19:25:50.103Z,21.53
2023-01-18T19:28:18.346Z,19.93
2023-01-18T19:30:47.723Z,17.17
2023-01-18T19:33:16.635Z,22.43
2023-01-18T19:35:46.147Z,20.20
2023-01-18T19:38:15.145Z,18.63
2023-01-18T19:40:43.688Z,20.57
2023-01-18T19:43:11.971Z,17.30
2023-01-18T19:45:40.662Z,19.10
2023-01-18T19:48:10.377Z,19.13
2023-01-18T19:50:38.678Z,19.20
2023-01-18T19:53:06.971Z,18.30
2023-01-18T19:55:37.199Z,18.07
2023-01-18T19:58:06.447Z,20.17
2023-01-18T20:00:34.985Z,19.00
2023-01-18T20:03:03.625Z,20.33
2023-01-18T20:05:33.637Z,21.13
2023-01-18T20:08:01.884Z,21.53
2023-01-18T20:10:30.191Z,21.77
2023-01-18T20:12:59.966Z,18.07
2023-01-18T20:15:28.517Z,20.50
2023-01-18T20:17:56.916Z,20.57
2023-01-18T20:20:32.493Z,18.47
2023-01-18T20:23:04.115Z,18.60
2023-01-18T20:25:33.414Z,17.30
2023-01-18T20:28:03.965Z,17.07
2023-01-18T20:30:32.596Z,19.73
2023-01-18T20:33:01.896Z,18.03
2023-01-18T20:35:30.341Z,18.17
2023-01-18T20:37:59.151Z,19.60
2023-01-18T20:40:28.800Z,20.87
2023-01-18T20:42:57.216Z,19.07
2023-01-18T20:45:25.551Z,21.57
2023-01-18T20:47:53.898Z,20.87
2023-01-18T20:50:23.236Z,19.23
2023-01-18T20:52:51.843Z,21.10
2023-01-18T20:55:20.132Z,21.60
2023-01-18T20:57:52.101Z,17.53
2023-01-18T21:00:21.231Z,18.57
2023-01-18T21:02:49.796Z,16.70
2023-01-18T21:05:18.290Z,17.03
2023-01-18T21:07:46.431Z,18.47
2023-01-18T21:10:14.631Z,19.73
2023-01-18T21:12:42.790Z,19.33
2023-01-18T21:15:13.155Z,20.33
2023-01-18T21:17:41.529Z,20.97
2023-01-18T21:20:13.595Z,17.87
2023-01-18T21:22:42.583Z,21.57
2023-01-18T21:25:11.232Z,18.23
2023-01-18T21:27:43.323Z,21.23
2023-01-18T21:30:15.637Z,20.80
2023-01-18T21:32:44.203Z,20.57
2023-01-18T21:35:13.877Z,20.80
2023-01-18T21:37:42.840Z,20.20
2023-01-18T21:40:12.346Z,20.03
2023-01-18T21:42:58.118Z,22.90
2023-01-18T21:45:45.578Z,22.27
2023-01-18T21:48:13.914Z,19.33
2023-01-18T21:50:59.895Z,24.07
2023-01-18T21:53:45.365Z,22.07
2023-01-18T21:56:13.815Z,19.53
2023-01-18T21:58:54.191Z,25.50
2023-01-18T22:01:26.491Z,19.43
2023-01-18T22:04:13.554Z,19.50
2023-01-18T22:06:41.901Z,25.27
2023-01-18T22:09:10.153Z,27.27
2023-01-18T22:11:38.928Z,28.03
2023-01-18T22:14:08.666Z,24.23
2023-01-18T22:16:38.913Z,22.90
2023-01-18T22:19:07.480Z,23.90
2023-01-18T22:21:35.948Z,22.40
2023-01-18T22:24:04.333Z,24.93
2023-01-18T22:26:34.220Z,21.63
2023-01-18T22:29:03.836Z,23.43
2023-01-18T22:31:32.258Z,25.13
2023-01-18T22:34:03.871Z,22.40
2023-01-18T22:36:35.504Z,24.87
2023-01-18T22:39:03.853Z,23.73
2023-01-18T22:41:32.573Z,26.40
2023-01-18T22:44:00.991Z,22.93
2023-01-18T22:46:29.383Z,24.13
2023-01-18T22:48:58.779Z,24.20
2023-01-18T22:51:28.159Z,25.40
2023-01-18T22:53:56.671Z,23.40
2023-01-18T22:56:26.235Z,26.57
2023-01-18T22:58:54.431Z,24.83
2023-01-18T23:01:24.914Z,22.53
2023-01-18T23:03:55.831Z,24.97
2023-01-18T23:06:23.906Z,24.87
2023-01-18T23:08:54.336Z,22.27
2023-01-18T23:11:23.829Z,22.33
2023-01-18T23:14:11.467Z,21.10
2023-01-18T23:16:57.129Z,20.50
2023-01-18T23:19:28.157Z,22.50
2023-01-18T23:21:57.591Z,22.13
2023-01-18T23:24:27.886Z,25.83
2023-01-18T23:26:55.906Z,21.53
2023-01-18T23:29:24.008Z,22.47
2023-01-18T23:31:52.059Z,22.90
2023-01-18T23:34:20.229Z,22.00
2023-01-18T23:36:48.283Z,21.33
2023-01-18T23:39:33.622Z,21.67
2023-01-18T23:42:20.466Z,20.37
2023-01-18T23:45:05.862Z,21.50
2023-01-18T23:47:51.285Z,21.37
2023-01-18T23:50:36.629Z,22.00
2023-01-18T23:53:21.927Z,20.97
2023-01-18T23:55:52.771Z,20.03
2023-01-18T23:58:22.181Z,19.47
